Time;durP1;ratioP1;P1;durP2;ratioP2;P2;SDS_P1;SDS_P2;PMS_P1;PMS_P2;Temp;Humidity;BMP_temperature;BMP_pressure;BME280_temperature;BME280_humidity;BME280_pressure;Samples;Min_cycle;Max_cycle;Signal;HPM_P1;HPM_P2
2022/07/22 00:00:15;;;;;;;13.90;7.10;;;25.00;99.90;;;;;;5038527;28;20050;-85
2022/07/22 00:02:41;;;;;;;13.10;7.13;;;24.90;99.90;;;;;;5039365;28;20025;-84
2022/07/22 00:05:10;;;;;;;10.20;7.22;;;24.90;99.90;;;;;;5039548;28;20021;-84
2022/07/22 00:07:38;;;;;;;12.63;7.30;;;24.80;99.90;;;;;;5022259;28;20041;-85
2022/07/22 00:10:07;;;;;;;14.13;7.50;;;24.80;99.90;;;;;;5022003;28;20017;-84
2022/07/22 00:12:33;;;;;;;14.98;7.97;;;24.80;99.90;;;;;;5021984;28;20060;-85
2022/07/22 00:14:59;;;;;;;8.90;7.53;;;24.70;99.90;;;;;;5039089;28;20013;-85
2022/07/22 00:17:25;;;;;;;10.32;7.78;;;24.60;99.90;;;;;;5039391;28;20058;-85
2022/07/22 00:19:51;;;;;;;15.60;7.68;;;24.60;99.90;;;;;;5022348;28;20014;-84
2022/07/22 00:22:17;;;;;;;9.20;7.25;;;24.50;99.90;;;;;;5039243;28;20018;-84
2022/07/22 00:24:43;;;;;;;13.20;7.85;;;24.40;99.90;;;;;;5038774;28;20021;-85
2022/07/22 00:27:09;;;;;;;13.32;7.90;;;24.30;99.90;;;;;;5038741;28;20018;-85
2022/07/22 00:29:34;;;;;;;16.30;8.13;;;24.20;99.90;;;;;;5054473;28;20018;-86
2022/07/22 00:32:00;;;;;;;11.30;8.15;;;24.20;99.90;;;;;;5021439;28;20014;-87
2022/07/22 00:34:26;;;;;;;11.07;8.32;;;24.20;99.90;;;;;;5021338;28;20033;-85
2022/07/22 00:36:52;;;;;;;12.98;8.30;;;24.10;99.90;;;;;;5038444;28;20010;-86
2022/07/22 00:39:18;;;;;;;10.48;8.70;;;24.10;99.90;;;;;;5032271;28;20041;-86
2022/07/22 00:41:44;;;;;;;12.60;8.05;;;24.00;99.90;;;;;;5032383;28;20025;-87
2022/07/22 00:44:11;;;;;;;13.65;8.20;;;24.00;99.90;;;;;;5013048;28;20037;-86
2022/07/22 00:46:38;;;;;;;14.52;9.05;;;23.90;99.90;;;;;;5031699;28;20026;-86
2022/07/22 00:49:06;;;;;;;12.40;8.48;;;23.90;99.90;;;;;;5031446;28;20038;-85
2022/07/22 00:51:32;;;;;;;12.95;7.85;;;23.90;99.90;;;;;;5031061;28;20029;-85
2022/07/22 00:53:59;;;;;;;12.18;8.32;;;23.90;99.90;;;;;;5011871;28;20048;-87
2022/07/22 00:56:25;;;;;;;22.17;8.25;;;23.80;99.90;;;;;;5029680;28;20018;-86
2022/07/22 00:58:54;;;;;;;9.85;7.78;;;23.80;99.90;;;;;;5044514;28;20030;-86
2022/07/22 01:01:19;;;;;;;14.73;8.32;;;23.70;99.90;;;;;;5029120;28;20069;-87
2022/07/22 01:03:46;;;;;;;10.85;7.85;;;23.70;99.90;;;;;;5029027;28;20041;-88
2022/07/22 01:06:12;;;;;;;9.85;7.63;;;23.70;99.90;;;;;;5028817;28;20030;-88
2022/07/22 01:08:39;;;;;;;12.40;8.32;;;23.60;99.90;;;;;;5031008;28;20034;-87
2022/07/22 01:11:17;;;;;;;10.43;7.47;;;23.70;99.90;;;;;;5015281;28;20045;-86
2022/07/22 01:13:44;;;;;;;12.02;8.00;;;23.60;99.90;;;;;;5053138;28;20049;-85
2022/07/22 01:16:13;;;;;;;14.75;7.40;;;23.70;99.90;;;;;;5020460;28;20010;-85
2022/07/22 01:18:40;;;;;;;11.52;7.53;;;23.70;99.90;;;;;;5037398;28;20018;-86
2022/07/22 01:21:08;;;;;;;13.40;7.38;;;23.60;99.90;;;;;;5020757;28;20010;-87
2022/07/22 01:23:34;;;;;;;13.93;7.80;;;23.70;99.90;;;;;;5020405;28;20055;-85
2022/07/22 01:26:01;;;;;;;11.68;7.82;;;23.60;99.90;;;;;;5019980;28;20421;-88
2022/07/22 01:28:27;;;;;;;10.35;7.95;;;23.60;99.90;;;;;;5019004;28;20034;-86
2022/07/22 01:30:53;;;;;;;10.73;7.70;;;23.60;99.90;;;;;;5050780;28;20048;-86
2022/07/22 01:33:20;;;;;;;11.38;7.68;;;23.60;99.90;;;;;;5035427;28;20041;-86
2022/07/22 01:35:46;;;;;;;11.02;7.70;;;23.50;99.90;;;;;;5035126;28;20044;-86
2022/07/22 01:38:13;;;;;;;11.68;7.30;;;23.50;99.90;;;;;;5018341;28;20045;-86
2022/07/22 01:40:40;;;;;;;13.45;7.18;;;23.50;99.90;;;;;;5019340;28;20026;-85
2022/07/22 01:43:06;;;;;;;10.35;7.13;;;23.40;99.90;;;;;;5036736;28;20041;-87
2022/07/22 01:45:32;;;;;;;11.50;7.63;;;23.40;99.90;;;;;;5019599;28;20022;-85
2022/07/22 01:47:58;;;;;;;9.27;7.45;;;23.40;99.90;;;;;;5017524;28;20025;-86
2022/07/22 01:50:25;;;;;;;9.13;6.78;;;23.40;99.90;;;;;;5048196;28;20173;-88
2022/07/22 01:52:51;;;;;;;9.32;7.30;;;23.40;99.90;;;;;;5019795;28;20042;-86
2022/07/22 01:55:18;;;;;;;11.80;7.57;;;23.40;99.90;;;;;;5021468;28;20034;-85
2022/07/22 01:57:44;;;;;;;8.77;6.78;;;23.30;99.90;;;;;;5021508;28;20030;-84
2022/07/22 02:00:18;;;;;;;10.98;7.20;;;23.40;99.90;;;;;;5053608;28;20022;-84
2022/07/22 02:02:45;;;;;;;12.00;7.65;;;23.40;99.90;;;;;;5052722;28;20041;-86
2022/07/22 02:05:11;;;;;;;11.10;7.85;;;23.30;99.90;;;;;;5046109;28;20026;-85
2022/07/22 02:07:37;;;;;;;9.63;7.03;;;23.30;99.90;;;;;;5046046;28;20048;-84
2022/07/22 02:10:05;;;;;;;10.23;7.30;;;23.30;99.90;;;;;;5011821;28;20102;-85
2022/07/22 02:12:33;;;;;;;12.88;7.13;;;23.30;99.90;;;;;;5053292;28;20094;-85
2022/07/22 02:14:59;;;;;;;11.00;7.80;;;23.30;99.90;;;;;;5004431;28;20018;-87
2022/07/22 02:17:25;;;;;;;10.73;7.93;;;23.30;99.90;;;;;;5053338;28;20060;-86
2022/07/22 02:19:51;;;;;;;9.38;7.07;;;23.30;99.90;;;;;;5032733;28;20026;-86
2022/07/22 02:22:17;;;;;;;10.93;6.65;;;23.30;99.90;;;;;;5029101;28;20061;-87
2022/07/22 02:24:46;;;;;;;12.30;7.53;;;23.30;99.90;;;;;;5013078;28;20040;-87
2022/07/22 02:27:12;;;;;;;11.00;7.32;;;23.20;99.90;;;;;;5047822;28;20029;-87
2022/07/22 02:29:40;;;;;;;9.82;7.40;;;23.20;99.90;;;;;;5015260;28;20111;-87
2022/07/22 02:32:06;;;;;;;11.32;7.55;;;23.20;99.90;;;;;;5029354;28;20358;-89
2022/07/22 02:34:32;;;;;;;10.43;7.57;;;23.20;99.90;;;;;;5011843;28;20022;-90
2022/07/22 02:36:58;;;;;;;8.38;6.68;;;23.20;99.90;;;;;;5014797;28;20030;-86
2022/07/22 02:39:24;;;;;;;10.00;7.93;;;23.20;99.90;;;;;;5017213;28;20145;-87
2022/07/22 02:41:50;;;;;;;11.63;7.68;;;23.20;99.90;;;;;;5035050;28;20025;-86
2022/07/22 02:44:16;;;;;;;10.73;7.60;;;23.20;99.90;;;;;;5015329;28;20042;-85
2022/07/22 02:46:42;;;;;;;9.27;7.57;;;23.10;99.90;;;;;;4996975;28;20033;-87
2022/07/22 02:49:13;;;;;;;12.48;7.82;;;23.10;99.90;;;;;;5014981;28;20045;-85
2022/07/22 02:51:39;;;;;;;15.70;7.95;;;23.10;99.90;;;;;;5055323;28;20033;-86
2022/07/22 02:54:06;;;;;;;9.98;7.53;;;23.10;99.90;;;;;;5023216;28;20046;-84
2022/07/22 02:56:32;;;;;;;12.40;8.27;;;23.10;99.90;;;;;;5023402;28;20060;-85
2022/07/22 02:58:58;;;;;;;13.32;7.13;;;23.10;99.90;;;;;;5023102;28;20026;-86
2022/07/22 03:01:25;;;;;;;14.20;7.93;;;23.00;99.90;;;;;;5023201;28;20018;-85
2022/07/22 03:03:54;;;;;;;12.98;8.18;;;23.00;99.90;;;;;;5020846;28;20342;-87
2022/07/22 03:06:21;;;;;;;12.90;7.85;;;23.00;99.90;;;;;;5015657;28;20449;-86
2022/07/22 03:08:58;;;;;;;11.60;8.32;;;23.00;99.90;;;;;;5047367;28;20026;-88
2022/07/22 03:11:25;;;;;;;12.00;8.65;;;23.00;99.90;;;;;;5013186;28;20093;-88
2022/07/22 03:13:51;;;;;;;14.75;9.27;;;23.00;99.90;;;;;;5046389;28;20037;-88
2022/07/22 03:16:18;;;;;;;10.93;8.38;;;23.00;99.90;;;;;;5012557;28;20490;-87
2022/07/22 03:18:45;;;;;;;15.70;8.85;;;23.00;99.90;;;;;;5029371;28;20022;-85
2022/07/22 03:21:12;;;;;;;11.35;8.48;;;23.00;99.90;;;;;;5009031;28;20046;-86
2022/07/22 03:23:37;;;;;;;11.10;8.93;;;22.90;99.90;;;;;;4994530;28;20517;-84
2022/07/22 03:26:04;;;;;;;13.07;8.35;;;22.90;99.90;;;;;;5028745;28;20021;-85
2022/07/22 03:28:30;;;;;;;11.30;8.65;;;22.90;99.90;;;;;;5021675;28;20013;-87
2022/07/22 03:30:55;;;;;;;16.02;9.07;;;22.80;99.90;;;;;;5034608;28;20042;-88
2022/07/22 03:33:21;;;;;;;12.70;8.90;;;22.80;99.90;;;;;;5030577;23;20048;-78
2022/07/22 03:35:47;;;;;;;12.82;8.75;;;22.90;99.90;;;;;;4999726;28;20613;-76
2022/07/22 03:38:13;;;;;;;15.68;8.95;;;22.90;99.90;;;;;;5002283;28;20022;-79
2022/07/22 03:40:39;;;;;;;15.18;8.55;;;22.90;99.90;;;;;;5020076;28;20100;-79
2022/07/22 03:43:05;;;;;;;17.52;9.65;;;22.90;99.90;;;;;;5022409;28;20030;-79
2022/07/22 03:45:32;;;;;;;14.82;9.93;;;22.90;99.90;;;;;;4990865;28;20445;-80
2022/07/22 03:47:58;;;;;;;12.13;8.85;;;22.90;99.90;;;;;;5009542;28;20025;-77
2022/07/22 03:50:27;;;;;;;12.10;9.20;;;22.90;99.90;;;;;;5012401;28;20056;-78
2022/07/22 03:52:54;;;;;;;12.45;9.23;;;22.90;99.90;;;;;;5009129;28;20037;-80
2022/07/22 03:55:20;;;;;;;13.32;8.95;;;23.00;99.90;;;;;;5010634;28;20033;-79
2022/07/22 03:57:49;;;;;;;17.65;8.93;;;23.00;99.90;;;;;;5014657;28;20026;-79
2022/07/22 04:00:29;;;;;;;11.70;8.77;;;23.10;99.90;;;;;;5013542;28;20021;-82
2022/07/22 04:02:56;;;;;;;13.80;8.57;;;23.10;99.90;;;;;;5003177;28;20057;-78
2022/07/22 04:05:45;;;;;;;15.02;9.65;;;23.10;99.90;;;;;;5017866;28;20034;-78
2022/07/22 04:08:12;;;;;;;14.57;9.15;;;23.20;99.90;;;;;;5001146;28;20033;-77
2022/07/22 04:10:38;;;;;;;15.05;8.77;;;23.30;99.90;;;;;;5001604;28;20401;-80
2022/07/22 04:13:05;;;;;;;11.88;9.23;;;23.30;99.90;;;;;;5000706;28;20029;-78
2022/07/22 04:15:49;;;;;;;18.98;9.55;;;23.30;99.90;;;;;;5021985;28;20111;-78
2022/07/22 04:18:17;;;;;;;11.63;8.75;;;23.40;99.90;;;;;;5025395;28;20025;-77
2022/07/22 04:20:43;;;;;;;13.00;9.00;;;23.50;99.90;;;;;;5011690;28;20017;-80
2022/07/22 04:23:39;;;;;;;13.07;8.73;;;23.50;99.90;;;;;;5006151;28;20068;-82
2022/07/22 04:26:18;;;;;;;15.52;8.55;;;23.60;99.90;;;;;;5008889;28;20056;-81
2022/07/22 04:28:44;;;;;;;16.40;9.23;;;23.60;99.90;;;;;;4989506;28;20025;-81
2022/07/22 04:31:10;;;;;;;11.88;9.07;;;23.70;99.90;;;;;;5022219;28;20543;-78
2022/07/22 04:33:38;;;;;;;15.13;9.15;;;23.70;99.90;;;;;;5000569;28;20408;-78
2022/07/22 04:36:04;;;;;;;16.73;9.23;;;23.70;99.90;;;;;;4985619;28;20105;-78
2022/07/22 04:38:31;;;;;;;13.38;8.57;;;23.80;99.90;;;;;;5002660;28;20036;-78
2022/07/22 04:41:01;;;;;;;13.35;8.75;;;23.80;99.90;;;;;;4986614;28;20022;-79
2022/07/22 04:43:27;;;;;;;15.32;8.88;;;23.90;99.90;;;;;;4987283;28;20034;-78
2022/07/22 04:45:54;;;;;;;11.48;8.52;;;23.90;99.90;;;;;;5020542;28;20029;-80
2022/07/22 04:48:19;;;;;;;13.52;9.10;;;24.00;99.90;;;;;;4994308;28;20068;-80
2022/07/22 04:50:46;;;;;;;13.15;9.30;;;24.10;99.90;;;;;;5016494;28;20025;-77
2022/07/22 04:53:12;;;;;;;17.75;9.10;;;24.20;99.90;;;;;;5025571;28;20060;-78
2022/07/22 04:55:40;;;;;;;18.85;8.50;;;24.20;99.90;;;;;;5022267;28;20085;-79
2022/07/22 04:58:07;;;;;;;16.10;8.75;;;24.30;99.90;;;;;;5038206;28;20045;-79
2022/07/22 05:00:33;;;;;;;17.50;9.70;;;24.30;99.90;;;;;;5023048;28;20045;-80
2022/07/22 05:02:59;;;;;;;18.45;8.32;;;24.30;99.90;;;;;;5043606;28;20040;-79
2022/07/22 05:05:25;;;;;;;12.85;8.88;;;24.30;99.90;;;;;;5023882;28;20026;-79
2022/07/22 05:07:51;;;;;;;17.83;9.20;;;24.40;99.90;;;;;;5024637;28;20030;-79
2022/07/22 05:10:18;;;;;;;18.02;9.23;;;24.40;99.90;;;;;;5023702;28;20064;-78
2022/07/22 05:12:44;;;;;;;15.63;8.90;;;24.40;99.90;;;;;;5019582;28;20083;-81
2022/07/22 05:15:10;;;;;;;13.70;8.85;;;24.50;99.90;;;;;;5022058;28;20022;-78
2022/07/22 05:17:36;;;;;;;12.88;8.55;;;24.70;99.90;;;;;;5019176;28;20093;-77
2022/07/22 05:20:16;;;;;;;10.70;8.35;;;25.00;99.90;;;;;;5019102;28;20049;-79
2022/07/22 05:22:43;;;;;;;10.52;8.50;;;25.00;99.90;;;;;;5019127;28;20064;-78
2022/07/22 05:25:13;;;;;;;10.05;8.40;;;25.10;99.90;;;;;;5018489;28;20025;-79
2022/07/22 05:27:53;;;;;;;14.20;9.10;;;25.10;99.90;;;;;;5020359;28;20035;-77
2022/07/22 05:30:24;;;;;;;15.65;8.50;;;25.10;99.90;;;;;;5019744;28;20095;-78
2022/07/22 05:32:51;;;;;;;16.15;8.80;;;25.10;99.90;;;;;;5020652;28;20056;-79
2022/07/22 05:35:25;;;;;;;;;;;25.20;99.90;;;;;;5020658;28;20509;-78
2022/07/22 05:37:51;;;;;;;17.80;8.80;;;25.20;99.90;;;;;;5019610;28;20004;-78
2022/07/22 05:40:17;;;;;;;14.75;8.75;;;25.20;99.90;;;;;;5020785;28;20032;-78
2022/07/22 05:42:44;;;;;;;14.68;8.70;;;25.30;99.90;;;;;;5041117;28;20113;-80
2022/07/22 05:45:10;;;;;;;18.48;8.35;;;25.60;99.90;;;;;;5021398;28;20053;-79
2022/07/22 05:47:36;;;;;;;13.77;8.45;;;25.90;99.90;;;;;;5022267;28;20092;-79
2022/07/22 05:50:03;;;;;;;15.57;8.40;;;26.00;99.90;;;;;;5020803;28;20025;-78
2022/07/22 05:52:35;;;;;;;9.88;7.65;;;26.00;99.90;;;;;;5017812;28;20029;-79
2022/07/22 05:55:01;;;;;;;12.68;8.13;;;26.00;99.90;;;;;;5017915;28;20025;-79
2022/07/22 05:57:27;;;;;;;11.88;8.52;;;25.90;99.90;;;;;;5019430;28;20468;-78
2022/07/22 05:59:54;;;;;;;19.13;7.85;;;25.90;99.80;;;;;;5020894;28;20404;-78
2022/07/22 06:02:19;;;;;;;10.75;7.75;;;26.00;99.60;;;;;;5040135;28;20021;-78
2022/07/22 06:04:48;;;;;;;12.50;8.18;;;26.00;99.10;;;;;;5016464;28;20017;-77
2022/07/22 06:07:15;;;;;;;11.10;8.15;;;26.10;99.00;;;;;;5032195;28;20025;-77
2022/07/22 06:09:43;;;;;;;11.38;7.95;;;26.20;98.70;;;;;;5028212;28;20080;-78
2022/07/22 06:12:11;;;;;;;10.95;8.15;;;26.30;98.50;;;;;;5028680;28;20365;-77
2022/07/22 06:14:37;;;;;;;11.20;8.05;;;26.40;98.30;;;;;;5030684;28;20045;-79
2022/07/22 06:17:03;;;;;;;12.20;8.57;;;26.40;98.00;;;;;;5030145;28;20029;-78
2022/07/22 06:19:29;;;;;;;13.82;7.85;;;26.50;97.90;;;;;;5027803;28;20033;-79
2022/07/22 06:21:56;;;;;;;11.82;8.05;;;26.60;97.80;;;;;;5029199;28;20029;-78
2022/07/22 06:24:22;;;;;;;12.30;8.00;;;26.70;97.50;;;;;;5025403;28;20636;-78
2022/07/22 06:26:48;;;;;;;9.48;7.72;;;26.70;97.00;;;;;;5023832;28;20036;-79
2022/07/22 06:29:15;;;;;;;12.30;7.75;;;26.80;96.80;;;;;;5041626;28;20030;-79
2022/07/22 06:31:41;;;;;;;9.18;7.60;;;26.80;96.50;;;;;;5023400;28;20029;-79
2022/07/22 06:34:07;;;;;;;10.65;8.23;;;26.80;96.50;;;;;;5030343;28;20486;-80
2022/07/22 06:36:49;;;;;;;11.32;7.88;;;26.80;96.50;;;;;;5006642;28;20234;-78
2022/07/22 06:39:14;;;;;;;14.13;7.45;;;26.90;96.40;;;;;;5040404;28;20076;-81
2022/07/22 06:41:40;;;;;;;16.73;8.38;;;26.90;96.50;;;;;;5030198;28;20028;-80
2022/07/22 06:44:38;;;;;;;12.50;8.25;;;27.00;96.30;;;;;;5031289;28;20041;-79
2022/07/22 06:47:12;;;;;;;9.80;7.57;;;27.00;96.00;;;;;;5033589;28;20033;-79
2022/07/22 06:49:39;;;;;;;14.10;8.15;;;27.00;95.90;;;;;;5034879;28;20038;-81
2022/07/22 06:52:04;;;;;;;14.80;8.18;;;27.00;96.10;;;;;;5014878;28;20048;-83
2022/07/22 06:54:30;;;;;;;10.95;7.70;;;27.10;96.00;;;;;;5025462;28;20089;-81
2022/07/22 06:56:59;;;;;;;13.18;9.40;;;27.20;95.90;;;;;;5014453;28;20052;-79
2022/07/22 06:59:30;;;;;;;14.00;8.00;;;27.10;95.90;;;;;;5012239;28;20041;-81
2022/07/22 07:01:57;;;;;;;11.98;8.35;;;27.30;95.80;;;;;;5028533;28;20034;-79
2022/07/22 07:04:24;;;;;;;11.95;8.30;;;27.30;95.70;;;;;;5030407;28;20033;-79
2022/07/22 07:06:50;;;;;;;11.50;8.60;;;27.30;95.10;;;;;;5013337;28;20112;-79
2022/07/22 07:09:24;;;;;;;12.50;8.27;;;27.30;95.20;;;;;;5048399;28;20029;-79
2022/07/22 07:12:01;;;;;;;14.60;8.80;;;27.30;95.30;;;;;;5019563;28;20098;-78
2022/07/22 07:14:46;;;;;;;13.43;8.63;;;27.20;95.10;;;;;;5028306;28;20044;-77
2022/07/22 07:17:12;;;;;;;10.77;8.82;;;27.20;95.40;;;;;;5027825;28;20817;-78
2022/07/22 07:19:38;;;;;;;9.85;8.10;;;27.20;95.30;;;;;;5011767;28;20017;-78
2022/07/22 07:22:04;;;;;;;10.52;8.50;;;27.10;95.80;;;;;;5017842;28;20032;-80
2022/07/22 07:24:30;;;;;;;11.40;8.30;;;27.20;95.60;;;;;;5000882;28;20018;-78
2022/07/22 07:26:56;;;;;;;15.48;8.65;;;27.30;95.50;;;;;;5018609;28;20022;-79
2022/07/22 07:29:26;;;;;;;12.00;8.75;;;27.30;95.50;;;;;;5007307;28;20044;-82
2022/07/22 07:31:52;;;;;;;12.73;9.43;;;27.30;95.50;;;;;;5012094;28;20029;-82
2022/07/22 07:34:20;;;;;;;13.60;8.52;;;27.50;95.50;;;;;;5021295;28;20044;-81
2022/07/22 07:36:46;;;;;;;11.95;8.77;;;27.50;95.30;;;;;;5019369;28;20037;-82
2022/07/22 07:39:14;;;;;;;11.27;8.18;;;27.60;95.00;;;;;;5002301;28;20052;-82
2022/07/22 07:41:40;;;;;;;16.27;7.90;;;27.60;94.90;;;;;;5019226;28;20076;-81
2022/07/22 07:44:07;;;;;;;15.30;9.25;;;27.70;95.00;;;;;;5004868;28;20431;-84
2022/07/22 07:46:33;;;;;;;14.50;8.75;;;27.60;94.80;;;;;;5024366;28;20061;-82
2022/07/22 07:48:58;;;;;;;11.85;8.05;;;27.60;94.90;;;;;;5005009;28;20034;-81
2022/07/22 07:51:24;;;;;;;16.08;8.93;;;27.60;95.00;;;;;;5004613;28;20030;-83
2022/07/22 07:53:50;;;;;;;11.50;8.65;;;27.70;95.10;;;;;;5003787;28;20022;-80
2022/07/22 07:56:16;;;;;;;11.60;8.43;;;27.80;94.90;;;;;;5005341;28;20026;-83
2022/07/22 07:58:43;;;;;;;16.00;8.70;;;27.80;95.00;;;;;;5003410;28;20022;-81
2022/07/22 08:01:09;;;;;;;10.77;8.43;;;27.80;95.00;;;;;;5021562;28;20030;-81
2022/07/22 08:03:36;;;;;;;14.35;9.52;;;27.80;94.80;;;;;;5002565;28;20045;-80
2022/07/22 08:06:02;;;;;;;15.27;9.60;;;27.80;95.10;;;;;;4986277;28;20037;-82
2022/07/22 08:08:29;;;;;;;13.63;8.88;;;27.80;95.10;;;;;;5007307;28;20106;-82
2022/07/22 08:10:56;;;;;;;14.10;8.77;;;27.80;95.10;;;;;;5018962;28;20051;-80
2022/07/22 08:13:31;;;;;;;11.85;9.13;;;27.80;95.40;;;;;;5034399;28;20045;-84
2022/07/22 08:16:07;;;;;;;9.85;8.18;;;27.80;95.30;;;;;;5019917;28;20025;-81
2022/07/22 08:18:33;;;;;;;14.23;8.75;;;27.80;95.10;;;;;;5020681;28;20021;-81
2022/07/22 08:20:59;;;;;;;15.57;9.13;;;27.90;94.90;;;;;;4988713;28;20029;-81
2022/07/22 08:23:38;;;;;;;12.38;9.40;;;27.90;94.80;;;;;;5001967;28;20155;-82
2022/07/22 08:26:04;;;;;;;13.98;9.15;;;28.00;95.00;;;;;;5019443;28;20082;-82
2022/07/22 08:28:30;;;;;;;12.75;8.80;;;28.10;94.60;;;;;;5023464;28;20105;-82
2022/07/22 08:30:56;;;;;;;16.08;9.32;;;28.20;94.60;;;;;;5021808;28;20034;-82
2022/07/22 08:33:22;;;;;;;11.13;7.97;;;28.20;94.60;;;;;;5005780;28;20042;-81
2022/07/22 08:35:48;;;;;;;12.88;8.95;;;28.20;94.60;;;;;;5021475;28;20125;-83
2022/07/22 08:38:14;;;;;;;10.85;7.97;;;28.30;94.50;;;;;;5005399;28;20029;-81
2022/07/22 08:40:40;;;;;;;16.75;9.30;;;28.40;94.40;;;;;;5008621;28;20033;-83
2022/07/22 08:43:07;;;;;;;12.07;8.63;;;28.40;94.10;;;;;;5010232;28;20025;-83
2022/07/22 08:45:34;;;;;;;14.88;8.93;;;28.50;93.80;;;;;;5023714;28;20038;-83
2022/07/22 08:48:02;;;;;;;10.90;9.18;;;28.60;93.90;;;;;;5023708;28;20022;-84
2022/07/22 08:50:43;;;;;;;11.07;8.75;;;28.60;93.70;;;;;;5028108;28;20030;-84
2022/07/22 08:53:14;;;;;;;12.90;8.75;;;28.60;93.60;;;;;;5039938;28;20049;-82
2022/07/22 08:55:47;;;;;;;13.10;9.20;;;28.70;93.50;;;;;;5020979;28;20056;-83
2022/07/22 08:58:15;;;;;;;11.90;8.68;;;28.80;93.00;;;;;;5019438;28;20025;-82
2022/07/22 09:00:40;;;;;;;11.10;8.50;;;28.90;93.00;;;;;;5020657;28;20024;-80
2022/07/22 09:03:21;;;;;;;11.60;7.90;;;29.00;93.00;;;;;;5023033;28;20370;-82
2022/07/22 09:05:51;;;;;;;10.77;7.95;;;29.00;92.70;;;;;;5022415;28;20045;-82
2022/07/22 09:08:19;;;;;;;10.68;8.15;;;29.00;92.60;;;;;;5004688;28;20034;-82
2022/07/22 09:11:18;;;;;;;9.60;8.60;;;29.00;92.50;;;;;;4991570;28;20025;-83
2022/07/22 09:14:16;;;;;;;12.10;7.95;;;29.10;92.20;;;;;;4980369;28;20041;-81
2022/07/22 09:16:52;;;;;;;11.68;8.32;;;29.20;92.00;;;;;;4996162;28;20026;-81
2022/07/22 09:19:35;;;;;;;9.90;8.50;;;29.40;91.80;;;;;;5018327;28;20064;-82
2022/07/22 09:22:42;;;;;;;12.82;7.93;;;29.40;91.60;;;;;;5021975;28;20041;-82
2022/07/22 09:25:28;;;;;;;16.08;8.18;;;29.40;91.60;;;;;;5001158;28;20073;-83
2022/07/22 09:28:16;;;;;;;11.82;8.57;;;29.50;91.60;;;;;;5019734;28;20121;-83
2022/07/22 09:31:00;;;;;;;13.07;7.75;;;29.70;91.40;;;;;;5020504;28;20045;-84
2022/07/22 09:33:32;;;;;;;14.35;7.53;;;29.80;91.00;;;;;;5031349;23;20053;-86
2022/07/22 09:36:19;;;;;;;10.48;8.32;;;29.80;90.90;;;;;;5039113;28;20029;-88
2022/07/22 09:39:15;;;;;;;11.75;8.70;;;30.00;90.60;;;;;;5023964;28;20093;-87
2022/07/22 09:42:06;;;;;;;12.27;8.70;;;30.00;90.60;;;;;;5036221;28;20041;-88
2022/07/22 09:44:36;;;;;;;12.20;7.65;;;30.30;89.90;;;;;;5012911;28;20032;-89
2022/07/22 09:47:29;;;;;;;13.60;7.45;;;30.60;89.10;;;;;;5006952;28;20130;-90
2022/07/22 09:50:22;;;;;;;9.13;7.05;;;31.10;87.20;;;;;;5022433;28;20036;-89
2022/07/22 09:53:07;;;;;;;11.95;7.80;;;31.70;85.00;;;;;;5025642;28;20102;-89
2022/07/22 09:55:39;;;;;;;9.45;7.22;;;32.60;83.70;;;;;;4991741;28;20061;-89
2022/07/22 09:58:07;;;;;;;8.73;7.65;;;33.30;81.50;;;;;;5015357;28;20030;-88
2022/07/22 10:00:35;;;;;;;11.27;7.72;;;34.10;78.80;;;;;;4999156;28;20026;-87
2022/07/22 10:03:04;;;;;;;9.68;7.43;;;34.70;77.00;;;;;;4998554;28;20072;-87
2022/07/22 10:05:36;;;;;;;8.05;7.13;;;35.30;75.20;;;;;;5016385;28;20037;-88
2022/07/22 10:08:13;;;;;;;8.88;7.00;;;36.00;73.20;;;;;;5022070;28;20025;-87
2022/07/22 10:10:43;;;;;;;12.02;8.18;;;36.70;70.90;;;;;;5008362;28;20048;-88
2022/07/22 10:13:12;;;;;;;9.48;6.82;;;37.20;69.60;;;;;;5023216;28;20029;-88
2022/07/22 10:15:39;;;;;;;11.60;6.75;;;38.20;67.10;;;;;;5007313;28;20021;-88
2022/07/22 10:18:16;;;;;;;10.10;6.38;;;38.70;65.20;;;;;;5007361;28;20037;-90
2022/07/22 10:21:11;;;;;;;7.82;7.03;;;39.80;63.00;;;;;;5003593;28;20089;-89
2022/07/22 10:24:14;;;;;;;7.55;5.85;;;40.90;60.50;;;;;;5010104;28;20063;-86
2022/07/22 10:26:53;;;;;;;9.00;5.80;;;41.40;58.70;;;;;;5007970;28;20026;-85
2022/07/22 10:29:29;;;;;;;7.82;6.50;;;43.00;56.70;;;;;;5002857;28;20140;-87
2022/07/22 10:32:17;;;;;;;7.35;5.90;;;43.40;54.90;;;;;;5006533;28;20026;-86
2022/07/22 10:34:43;;;;;;;7.05;5.75;;;44.10;53.20;;;;;;5037194;28;20026;-87
2022/07/22 10:37:34;;;;;;;9.73;6.70;;;44.80;51.90;;;;;;5019449;28;20017;-87
2022/07/22 10:40:12;;;;;;;8.52;5.60;;;45.30;51.00;;;;;;5014816;28;20032;-86
2022/07/22 10:42:59;;;;;;;7.75;5.40;;;46.20;49.90;;;;;;5017187;28;20041;-86
2022/07/22 10:45:35;;;;;;;9.15;5.78;;;46.70;48.30;;;;;;5022356;28;20251;-87
2022/07/22 10:48:10;;;;;;;9.43;5.35;;;46.90;47.50;;;;;;5016744;28;20072;-87
2022/07/22 10:50:37;;;;;;;11.00;4.80;;;46.90;46.90;;;;;;4998134;28;20025;-88
2022/07/22 10:53:05;;;;;;;5.68;5.03;;;46.90;46.50;;;;;;5011139;28;20018;-89
2022/07/22 10:55:31;;;;;;;9.13;5.75;;;47.30;46.00;;;;;;4996592;28;20129;-88
2022/07/22 10:57:57;;;;;;;11.32;5.53;;;47.20;45.90;;;;;;5016303;28;20106;-89
2022/07/22 11:00:23;;;;;;;9.00;5.22;;;46.70;46.00;;;;;;5021606;28;20089;-89
2022/07/22 11:02:49;;;;;;;9.93;5.25;;;47.00;45.70;;;;;;5038849;28;20013;-89
2022/07/22 11:05:30;;;;;;;8.82;5.25;;;47.60;45.20;;;;;;5006259;28;20018;-89
2022/07/22 11:07:56;;;;;;;10.55;5.13;;;47.70;44.50;;;;;;5004584;28;20025;-87
2022/07/22 11:10:22;;;;;;;5.82;5.22;;;47.60;44.40;;;;;;5019210;28;20022;-88
2022/07/22 11:12:49;;;;;;;5.75;4.75;;;48.10;44.00;;;;;;5020122;28;20044;-88
2022/07/22 11:15:16;;;;;;;7.80;5.00;;;48.50;43.80;;;;;;5036147;28;20049;-89
2022/07/22 11:17:42;;;;;;;7.13;5.03;;;49.00;42.90;;;;;;5016785;28;20056;-87
2022/07/22 11:20:10;;;;;;;5.93;5.25;;;49.10;42.50;;;;;;5017008;28;20085;-87
2022/07/22 11:22:36;;;;;;;9.65;4.82;;;48.60;42.60;;;;;;5003863;28;20117;-87
2022/07/22 11:25:08;;;;;;;6.43;4.75;;;48.30;42.30;;;;;;5000800;28;20069;-88
2022/07/22 11:27:34;;;;;;;7.25;5.18;;;48.00;42.30;;;;;;5017740;28;20048;-88
2022/07/22 11:30:03;;;;;;;7.85;5.25;;;47.30;42.30;;;;;;5001123;28;20557;-85
2022/07/22 11:32:41;;;;;;;5.55;4.95;;;47.90;42.30;;;;;;5019971;28;20037;-87
2022/07/22 11:35:11;;;;;;;8.25;5.53;;;48.70;42.10;;;;;;5018542;28;20023;-86
2022/07/22 11:37:38;;;;;;;5.47;4.97;;;49.00;41.70;;;;;;4999733;28;20113;-88
2022/07/22 11:40:07;;;;;;;7.75;4.95;;;49.40;41.60;;;;;;5015826;28;20019;-87
2022/07/22 11:42:33;;;;;;;13.23;5.47;;;50.00;41.00;;;;;;5000468;28;20034;-87
2022/07/22 11:44:59;;;;;;;5.35;4.85;;;50.10;41.10;;;;;;4997041;28;20050;-87
2022/07/22 11:47:25;;;;;;;6.60;4.95;;;50.00;41.10;;;;;;4984591;28;20030;-87
2022/07/22 11:49:51;;;;;;;8.85;4.93;;;49.60;41.30;;;;;;5009421;28;20029;-86
2022/07/22 11:52:17;;;;;;;6.07;4.85;;;49.90;41.10;;;;;;5010645;28;20030;-87
2022/07/22 11:54:44;;;;;;;9.98;5.07;;;49.60;40.80;;;;;;5017650;28;20045;-88
2022/07/22 11:57:12;;;;;;;7.07;5.18;;;50.00;40.70;;;;;;5003535;28;20044;-87
2022/07/22 11:59:38;;;;;;;7.20;4.93;;;50.00;40.50;;;;;;5010964;28;20010;-88
2022/07/22 12:02:06;;;;;;;9.35;5.22;;;50.10;40.40;;;;;;5019178;28;20098;-87
2022/07/22 12:04:33;;;;;;;8.00;5.38;;;49.80;40.30;;;;;;4999782;28;20032;-88
2022/07/22 12:07:01;;;;;;;7.57;4.85;;;50.00;40.30;;;;;;4995813;28;20021;-88
2022/07/22 12:09:34;;;;;;;5.32;4.55;;;49.70;40.10;;;;;;4990323;28;20049;-86
2022/07/22 12:12:00;;;;;;;8.83;5.33;;;49.10;40.30;;;;;;5011415;28;20025;-85
2022/07/22 12:14:28;;;;;;;7.60;5.18;;;48.40;40.60;;;;;;5027138;28;20261;-85
2022/07/22 12:17:03;;;;;;;8.50;4.95;;;47.90;40.90;;;;;;5027004;28;20026;-87
2022/07/22 12:19:31;;;;;;;7.90;5.38;;;47.00;41.40;;;;;;5025343;28;20026;-88
2022/07/22 12:22:27;;;;;;;7.90;4.93;;;46.80;41.60;;;;;;4993985;28;20026;-88
2022/07/22 12:25:02;;;;;;;6.25;5.07;;;47.30;41.40;;;;;;4991755;28;20092;-86
2022/07/22 12:27:28;;;;;;;7.72;5.63;;;47.30;41.40;;;;;;5004935;28;20034;-88
2022/07/22 12:29:56;;;;;;;5.88;5.28;;;46.30;41.80;;;;;;5006192;28;20025;-88
2022/07/22 12:32:21;;;;;;;5.82;5.07;;;46.50;41.90;;;;;;5009313;28;20030;-88
2022/07/22 12:34:55;;;;;;;6.03;5.43;;;46.50;41.80;;;;;;4995626;28;20014;-88
2022/07/22 12:37:27;;;;;;;10.65;5.10;;;47.00;41.60;;;;;;5001696;28;20042;-86
2022/07/22 12:39:58;;;;;;;8.63;5.30;;;47.70;41.20;;;;;;5014809;28;20042;-86
2022/07/22 12:42:26;;;;;;;7.28;5.15;;;48.40;40.90;;;;;;5017946;28;20033;-89
2022/07/22 12:45:08;;;;;;;7.32;5.20;;;48.20;40.80;;;;;;5016292;28;20022;-87
2022/07/22 12:47:58;;;;;;;5.90;4.78;;;48.50;40.70;;;;;;4999434;28;20100;-87
2022/07/22 12:50:45;;;;;;;9.35;5.50;;;48.80;40.60;;;;;;5014515;28;20021;-87
2022/07/22 12:53:16;;;;;;;6.57;5.28;;;48.60;40.30;;;;;;4997185;28;20023;-86